sensor_id;sensor_type;location;lat;lon;timestamp;temperature;humidity
35258;DHT22;21385;50.878;8.050;2022-07-23T00:01:17;22.00;99.90
35258;DHT22;21385;50.878;8.050;2022-07-23T00:03:43;22.00;99.90
35258;DHT22;21385;50.878;8.050;2022-07-23T00:06:09;22.00;99.90
35258;DHT22;21385;50.878;8.050;2022-07-23T00:08:34;22.00;99.90
35258;DHT22;21385;50.878;8.050;2022-07-23T00:11:00;22.00;99.90
35258;DHT22;21385;50.878;8.050;2022-07-23T00:13:27;21.90;99.90
35258;DHT22;21385;50.878;8.050;2022-07-23T00:15:52;21.90;99.90
35258;DHT22;21385;50.878;8.050;2022-07-23T00:18:18;21.90;99.90
35258;DHT22;21385;50.878;8.050;2022-07-23T00:20:44;21.90;99.90
35258;DHT22;21385;50.878;8.050;2022-07-23T00:23:10;21.90;99.90
35258;DHT22;21385;50.878;8.050;2022-07-23T00:25:35;21.90;99.90
35258;DHT22;21385;50.878;8.050;2022-07-23T00:28:02;21.90;99.90
35258;DHT22;21385;50.878;8.050;2022-07-23T00:30:29;21.90;99.90
35258;DHT22;21385;50.878;8.050;2022-07-23T00:32:57;21.90;99.90
35258;DHT22;21385;50.878;8.050;2022-07-23T00:35:24;21.80;99.90
35258;DHT22;21385;50.878;8.050;2022-07-23T00:37:50;21.80;99.90
35258;DHT22;21385;50.878;8.050;2022-07-23T00:40:16;21.80;99.90
35258;DHT22;21385;50.878;8.050;2022-07-23T00:42:41;21.80;99.90
35258;DHT22;21385;50.878;8.050;2022-07-23T00:45:08;21.80;99.90
35258;DHT22;21385;50.878;8.050;2022-07-23T00:47:34;21.70;99.90
35258;DHT22;21385;50.878;8.050;2022-07-23T00:50:00;21.70;99.90
35258;DHT22;21385;50.878;8.050;2022-07-23T00:52:26;21.70;99.90
35258;DHT22;21385;50.878;8.050;2022-07-23T00:54:52;21.70;99.90
35258;DHT22;21385;50.878;8.050;2022-07-23T00:57:18;21.70;99.90
35258;DHT22;21385;50.878;8.050;2022-07-23T00:59:44;21.70;99.90
35258;DHT22;21385;50.878;8.050;2022-07-23T01:02:09;21.70;99.90
35258;DHT22;21385;50.878;8.050;2022-07-23T01:04:35;21.60;99.90
35258;DHT22;21385;50.878;8.050;2022-07-23T01:07:01;21.60;99.90
35258;DHT22;21385;50.878;8.050;2022-07-23T01:09:27;21.50;99.90
35258;DHT22;21385;50.878;8.050;2022-07-23T01:11:55;21.50;99.90
35258;DHT22;21385;50.878;8.050;2022-07-23T01:14:21;21.40;99.90
35258;DHT22;21385;50.878;8.050;2022-07-23T01:16:48;21.30;99.90
35258;DHT22;21385;50.878;8.050;2022-07-23T01:19:15;21.30;99.90
35258;DHT22;21385;50.878;8.050;2022-07-23T01:21:47;21.20;99.90
35258;DHT22;21385;50.878;8.050;2022-07-23T01:24:13;21.10;99.90
35258;DHT22;21385;50.878;8.050;2022-07-23T01:26:42;21.00;99.90
35258;DHT22;21385;50.878;8.050;2022-07-23T01:29:07;20.90;99.90
35258;DHT22;21385;50.878;8.050;2022-07-23T01:31:33;20.90;99.90
35258;DHT22;21385;50.878;8.050;2022-07-23T01:33:58;20.80;99.90
35258;DHT22;21385;50.878;8.050;2022-07-23T01:36:24;20.80;99.90
35258;DHT22;21385;50.878;8.050;2022-07-23T01:38:50;20.80;99.90
35258;DHT22;21385;50.878;8.050;2022-07-23T01:41:16;20.90;99.90
35258;DHT22;21385;50.878;8.050;2022-07-23T01:43:42;20.90;99.90
35258;DHT22;21385;50.878;8.050;2022-07-23T01:46:08;20.90;99.90
35258;DHT22;21385;50.878;8.050;2022-07-23T01:48:34;20.80;99.90
35258;DHT22;21385;50.878;8.050;2022-07-23T01:51:00;20.70;99.90
35258;DHT22;21385;50.878;8.050;2022-07-23T01:53:25;20.60;99.90
35258;DHT22;21385;50.878;8.050;2022-07-23T01:55:51;20.60;99.90
35258;DHT22;21385;50.878;8.050;2022-07-23T01:58:16;20.60;99.90
35258;DHT22;21385;50.878;8.050;2022-07-23T02:00:42;20.60;99.90
35258;DHT22;21385;50.878;8.050;2022-07-23T02:03:07;20.50;99.90
35258;DHT22;21385;50.878;8.050;2022-07-23T02:05:33;20.50;99.90
35258;DHT22;21385;50.878;8.050;2022-07-23T02:08:00;20.50;99.90
35258;DHT22;21385;50.878;8.050;2022-07-23T02:10:26;20.50;99.90
35258;DHT22;21385;50.878;8.050;2022-07-23T02:12:51;20.40;99.90
35258;DHT22;21385;50.878;8.050;2022-07-23T02:15:17;20.40;99.90
35258;DHT22;21385;50.878;8.050;2022-07-23T02:17:42;20.30;99.90
35258;DHT22;21385;50.878;8.050;2022-07-23T02:20:10;20.30;99.90
35258;DHT22;21385;50.878;8.050;2022-07-23T02:22:36;20.30;99.90
35258;DHT22;21385;50.878;8.050;2022-07-23T02:25:03;20.30;99.90
35258;DHT22;21385;50.878;8.050;2022-07-23T02:27:29;20.30;99.90
35258;DHT22;21385;50.878;8.050;2022-07-23T02:29:54;20.30;99.90
35258;DHT22;21385;50.878;8.050;2022-07-23T02:32:20;20.20;99.90
35258;DHT22;21385;50.878;8.050;2022-07-23T02:34:47;20.20;99.90
35258;DHT22;21385;50.878;8.050;2022-07-23T02:37:13;20.10;99.90
35258;DHT22;21385;50.878;8.050;2022-07-23T02:39:38;20.10;99.90
35258;DHT22;21385;50.878;8.050;2022-07-23T02:42:04;20.10;99.90
35258;DHT22;21385;50.878;8.050;2022-07-23T02:44:30;20.10;99.90
35258;DHT22;21385;50.878;8.050;2022-07-23T02:46:55;20.10;99.90
35258;DHT22;21385;50.878;8.050;2022-07-23T02:49:22;20.10;99.90
35258;DHT22;21385;50.878;8.050;2022-07-23T02:51:48;20.10;99.90
35258;DHT22;21385;50.878;8.050;2022-07-23T02:54:13;20.10;99.90
35258;DHT22;21385;50.878;8.050;2022-07-23T02:56:39;20.20;99.90
35258;DHT22;21385;50.878;8.050;2022-07-23T02:59:04;20.20;99.90
35258;DHT22;21385;50.878;8.050;2022-07-23T03:01:30;20.30;99.90
35258;DHT22;21385;50.878;8.050;2022-07-23T03:03:56;20.30;99.90
35258;DHT22;21385;50.878;8.050;2022-07-23T03:06:21;20.40;99.90
35258;DHT22;21385;50.878;8.050;2022-07-23T03:08:47;20.50;99.90
35258;DHT22;21385;50.878;8.050;2022-07-23T03:11:12;20.50;99.90
35258;DHT22;21385;50.878;8.050;2022-07-23T03:13:39;20.50;99.90
35258;DHT22;21385;50.878;8.050;2022-07-23T03:16:05;20.50;99.90
35258;DHT22;21385;50.878;8.050;2022-07-23T03:18:32;20.50;99.90
35258;DHT22;21385;50.878;8.050;2022-07-23T03:20:58;20.50;99.90
35258;DHT22;21385;50.878;8.050;2022-07-23T03:23:23;20.50;99.90
35258;DHT22;21385;50.878;8.050;2022-07-23T03:25:49;20.60;99.90
35258;DHT22;21385;50.878;8.050;2022-07-23T03:28:15;20.50;99.90
35258;DHT22;21385;50.878;8.050;2022-07-23T03:30:50;20.50;99.90
35258;DHT22;21385;50.878;8.050;2022-07-23T03:33:17;20.50;99.90
35258;DHT22;21385;50.878;8.050;2022-07-23T03:35:44;20.50;99.90
35258;DHT22;21385;50.878;8.050;2022-07-23T03:38:10;20.50;99.90
35258;DHT22;21385;50.878;8.050;2022-07-23T03:40:35;20.50;99.90
35258;DHT22;21385;50.878;8.050;2022-07-23T03:43:01;20.40;99.90
35258;DHT22;21385;50.878;8.050;2022-07-23T03:45:27;20.40;99.90
35258;DHT22;21385;50.878;8.050;2022-07-23T03:47:53;20.40;99.90
35258;DHT22;21385;50.878;8.050;2022-07-23T03:50:18;20.40;99.90
35258;DHT22;21385;50.878;8.050;2022-07-23T03:52:44;20.40;99.90
35258;DHT22;21385;50.878;8.050;2022-07-23T03:55:10;20.40;99.90
35258;DHT22;21385;50.878;8.050;2022-07-23T03:57:35;20.40;99.90
35258;DHT22;21385;50.878;8.050;2022-07-23T04:00:02;20.40;99.90
35258;DHT22;21385;50.878;8.050;2022-07-23T04:02:29;20.40;99.90
35258;DHT22;21385;50.878;8.050;2022-07-23T04:04:54;20.30;99.90
35258;DHT22;21385;50.878;8.050;2022-07-23T04:07:20;20.30;99.90
35258;DHT22;21385;50.878;8.050;2022-07-23T04:09:46;20.30;99.90
35258;DHT22;21385;50.878;8.050;2022-07-23T04:12:12;20.30;99.90
35258;DHT22;21385;50.878;8.050;2022-07-23T04:14:38;20.30;99.90
35258;DHT22;21385;50.878;8.050;2022-07-23T04:17:03;20.20;99.90
35258;DHT22;21385;50.878;8.050;2022-07-23T04:19:29;20.20;99.90
35258;DHT22;21385;50.878;8.050;2022-07-23T04:21:56;20.20;99.90
35258;DHT22;21385;50.878;8.050;2022-07-23T04:24:22;20.20;99.90
35258;DHT22;21385;50.878;8.050;2022-07-23T04:26:47;20.20;99.90
35258;DHT22;21385;50.878;8.050;2022-07-23T04:29:13;20.20;99.90
35258;DHT22;21385;50.878;8.050;2022-07-23T04:31:38;20.20;99.90
35258;DHT22;21385;50.878;8.050;2022-07-23T04:34:04;20.20;99.90
35258;DHT22;21385;50.878;8.050;2022-07-23T04:36:30;20.20;99.90
35258;DHT22;21385;50.878;8.050;2022-07-23T04:38:56;20.20;99.90
35258;DHT22;21385;50.878;8.050;2022-07-23T04:41:21;20.20;99.90
35258;DHT22;21385;50.878;8.050;2022-07-23T04:43:47;20.10;99.90
35258;DHT22;21385;50.878;8.050;2022-07-23T04:46:12;20.20;99.90
35258;DHT22;21385;50.878;8.050;2022-07-23T04:48:39;20.30;99.90
35258;DHT22;21385;50.878;8.050;2022-07-23T04:51:05;20.40;99.90
35258;DHT22;21385;50.878;8.050;2022-07-23T04:53:31;20.40;99.90
35258;DHT22;21385;50.878;8.050;2022-07-23T04:55:57;20.50;99.90
35258;DHT22;21385;50.878;8.050;2022-07-23T04:58:23;20.50;99.90
35258;DHT22;21385;50.878;8.050;2022-07-23T05:00:49;20.60;99.90
35258;DHT22;21385;50.878;8.050;2022-07-23T05:03:14;20.70;99.90
35258;DHT22;21385;50.878;8.050;2022-07-23T05:05:40;20.80;99.90
35258;DHT22;21385;50.878;8.050;2022-07-23T05:08:06;20.80;99.90
35258;DHT22;21385;50.878;8.050;2022-07-23T05:10:31;20.80;99.90
35258;DHT22;21385;50.878;8.050;2022-07-23T05:12:57;20.60;99.90
35258;DHT22;21385;50.878;8.050;2022-07-23T05:15:23;20.60;99.90
35258;DHT22;21385;50.878;8.050;2022-07-23T05:17:49;20.60;99.90
35258;DHT22;21385;50.878;8.050;2022-07-23T05:20:14;20.50;99.90
35258;DHT22;21385;50.878;8.050;2022-07-23T05:22:40;20.50;99.90
35258;DHT22;21385;50.878;8.050;2022-07-23T05:25:06;20.60;99.90
35258;DHT22;21385;50.878;8.050;2022-07-23T05:27:32;20.70;99.90
35258;DHT22;21385;50.878;8.050;2022-07-23T05:29:58;20.90;99.90
35258;DHT22;21385;50.878;8.050;2022-07-23T05:32:24;20.90;99.90
35258;DHT22;21385;50.878;8.050;2022-07-23T05:34:49;20.90;99.90
35258;DHT22;21385;50.878;8.050;2022-07-23T05:37:15;20.90;99.90
35258;DHT22;21385;50.878;8.050;2022-07-23T05:39:41;20.80;99.90
35258;DHT22;21385;50.878;8.050;2022-07-23T05:42:07;20.80;99.90
35258;DHT22;21385;50.878;8.050;2022-07-23T05:44:33;20.70;99.90
35258;DHT22;21385;50.878;8.050;2022-07-23T05:46:58;20.80;99.90
35258;DHT22;21385;50.878;8.050;2022-07-23T05:49:24;20.80;99.90
35258;DHT22;21385;50.878;8.050;2022-07-23T05:51:49;20.80;99.90
35258;DHT22;21385;50.878;8.050;2022-07-23T05:54:15;21.00;99.90
35258;DHT22;21385;50.878;8.050;2022-07-23T05:56:40;21.10;99.90
35258;DHT22;21385;50.878;8.050;2022-07-23T05:59:06;21.00;99.90
35258;DHT22;21385;50.878;8.050;2022-07-23T06:01:31;21.00;99.90
35258;DHT22;21385;50.878;8.050;2022-07-23T06:03:57;21.00;99.90
35258;DHT22;21385;50.878;8.050;2022-07-23T06:06:23;21.00;99.90
35258;DHT22;21385;50.878;8.050;2022-07-23T06:08:48;21.00;99.90
35258;DHT22;21385;50.878;8.050;2022-07-23T06:11:14;21.10;99.90
35258;DHT22;21385;50.878;8.050;2022-07-23T06:13:39;21.10;99.90
35258;DHT22;21385;50.878;8.050;2022-07-23T06:16:05;21.10;99.90
35258;DHT22;21385;50.878;8.050;2022-07-23T06:18:31;21.10;99.90
35258;DHT22;21385;50.878;8.050;2022-07-23T06:20:56;21.20;99.90
35258;DHT22;21385;50.878;8.050;2022-07-23T06:23:22;21.20;99.90
35258;DHT22;21385;50.878;8.050;2022-07-23T06:25:47;21.30;99.90
35258;DHT22;21385;50.878;8.050;2022-07-23T06:28:13;21.30;99.90
35258;DHT22;21385;50.878;8.050;2022-07-23T06:30:39;21.30;99.90
35258;DHT22;21385;50.878;8.050;2022-07-23T06:33:04;21.30;99.90
35258;DHT22;21385;50.878;8.050;2022-07-23T06:35:30;21.30;99.90
35258;DHT22;21385;50.878;8.050;2022-07-23T06:37:56;21.30;99.90
35258;DHT22;21385;50.878;8.050;2022-07-23T06:40:21;21.30;99.90
35258;DHT22;21385;50.878;8.050;2022-07-23T06:42:47;21.30;99.90
35258;DHT22;21385;50.878;8.050;2022-07-23T06:45:12;21.30;99.90
35258;DHT22;21385;50.878;8.050;2022-07-23T06:47:38;21.40;99.90
35258;DHT22;21385;50.878;8.050;2022-07-23T06:50:05;21.30;99.90
35258;DHT22;21385;50.878;8.050;2022-07-23T06:52:31;21.30;99.90
35258;DHT22;21385;50.878;8.050;2022-07-23T06:54:56;21.40;99.90
35258;DHT22;21385;50.878;8.050;2022-07-23T06:57:22;21.40;99.90
35258;DHT22;21385;50.878;8.050;2022-07-23T06:59:48;21.30;99.90
35258;DHT22;21385;50.878;8.050;2022-07-23T07:02:14;21.30;99.90
35258;DHT22;21385;50.878;8.050;2022-07-23T07:04:39;21.30;99.90
35258;DHT22;21385;50.878;8.050;2022-07-23T07:07:05;21.20;99.90
35258;DHT22;21385;50.878;8.050;2022-07-23T07:09:30;21.10;99.90
35258;DHT22;21385;50.878;8.050;2022-07-23T07:11:56;21.10;99.90
35258;DHT22;21385;50.878;8.050;2022-07-23T07:14:22;21.10;99.90
35258;DHT22;21385;50.878;8.050;2022-07-23T07:16:48;21.10;99.90
35258;DHT22;21385;50.878;8.050;2022-07-23T07:19:13;21.10;99.90
35258;DHT22;21385;50.878;8.050;2022-07-23T07:21:39;21.10;99.90
35258;DHT22;21385;50.878;8.050;2022-07-23T07:24:05;21.10;99.90
35258;DHT22;21385;50.878;8.050;2022-07-23T07:26:31;21.10;99.90
35258;DHT22;21385;50.878;8.050;2022-07-23T07:28:57;21.20;99.90
35258;DHT22;21385;50.878;8.050;2022-07-23T07:31:23;21.20;99.90
35258;DHT22;21385;50.878;8.050;2022-07-23T07:33:48;21.20;99.90
35258;DHT22;21385;50.878;8.050;2022-07-23T07:36:14;21.10;99.90
35258;DHT22;21385;50.878;8.050;2022-07-23T07:38:40;21.10;99.90
35258;DHT22;21385;50.878;8.050;2022-07-23T07:41:05;21.10;99.90
35258;DHT22;21385;50.878;8.050;2022-07-23T07:43:32;21.20;99.90
35258;DHT22;21385;50.878;8.050;2022-07-23T07:45:58;21.20;99.90
35258;DHT22;21385;50.878;8.050;2022-07-23T07:48:24;21.20;99.90
35258;DHT22;21385;50.878;8.050;2022-07-23T07:50:49;21.20;99.90
35258;DHT22;21385;50.878;8.050;2022-07-23T07:53:15;21.20;99.90
35258;DHT22;21385;50.878;8.050;2022-07-23T07:55:41;21.30;99.90
35258;DHT22;21385;50.878;8.050;2022-07-23T07:58:06;21.30;99.90
35258;DHT22;21385;50.878;8.050;2022-07-23T08:00:32;21.20;99.90
35258;DHT22;21385;50.878;8.050;2022-07-23T08:02:58;21.20;99.90
35258;DHT22;21385;50.878;8.050;2022-07-23T08:05:25;21.20;99.90
35258;DHT22;21385;50.878;8.050;2022-07-23T08:07:51;21.30;99.90
35258;DHT22;21385;50.878;8.050;2022-07-23T08:10:17;21.40;99.90
35258;DHT22;21385;50.878;8.050;2022-07-23T08:12:45;21.50;99.90
35258;DHT22;21385;50.878;8.050;2022-07-23T08:15:17;21.50;99.90
35258;DHT22;21385;50.878;8.050;2022-07-23T08:17:44;21.60;99.90
35258;DHT22;21385;50.878;8.050;2022-07-23T08:20:11;21.70;99.90
35258;DHT22;21385;50.878;8.050;2022-07-23T08:25:12;22.00;99.90
35258;DHT22;21385;50.878;8.050;2022-07-23T08:27:37;22.10;99.90
35258;DHT22;21385;50.878;8.050;2022-07-23T08:30:03;22.20;99.70
35258;DHT22;21385;50.878;8.050;2022-07-23T08:32:29;22.20;99.80
35258;DHT22;21385;50.878;8.050;2022-07-23T08:34:55;22.30;99.20
35258;DHT22;21385;50.878;8.050;2022-07-23T08:37:20;22.40;99.90
35258;DHT22;21385;50.878;8.050;2022-07-23T08:39:46;22.60;99.90
35258;DHT22;21385;50.878;8.050;2022-07-23T08:42:13;22.70;98.00
35258;DHT22;21385;50.878;8.050;2022-07-23T08:44:42;22.70;98.30
35258;DHT22;21385;50.878;8.050;2022-07-23T08:47:13;22.70;97.60
35258;DHT22;21385;50.878;8.050;2022-07-23T08:49:41;22.70;95.40
35258;DHT22;21385;50.878;8.050;2022-07-23T08:52:06;22.70;94.80
35258;DHT22;21385;50.878;8.050;2022-07-23T08:54:34;22.70;95.30
35258;DHT22;21385;50.878;8.050;2022-07-23T08:57:00;22.70;94.60
35258;DHT22;21385;50.878;8.050;2022-07-23T08:59:25;22.80;94.10
35258;DHT22;21385;50.878;8.050;2022-07-23T09:01:52;22.80;93.70
35258;DHT22;21385;50.878;8.050;2022-07-23T09:04:17;22.90;93.40
35258;DHT22;21385;50.878;8.050;2022-07-23T09:06:43;23.00;93.90
35258;DHT22;21385;50.878;8.050;2022-07-23T09:09:20;23.10;92.20
35258;DHT22;21385;50.878;8.050;2022-07-23T09:11:46;23.10;92.40
35258;DHT22;21385;50.878;8.050;2022-07-23T09:14:12;23.20;92.20
35258;DHT22;21385;50.878;8.050;2022-07-23T09:16:38;23.30;91.60
35258;DHT22;21385;50.878;8.050;2022-07-23T09:19:06;23.30;92.10
35258;DHT22;21385;50.878;8.050;2022-07-23T09:21:37;23.30;91.80
35258;DHT22;21385;50.878;8.050;2022-07-23T09:24:07;23.40;91.80
35258;DHT22;21385;50.878;8.050;2022-07-23T09:29:12;23.70;92.30
35258;DHT22;21385;50.878;8.050;2022-07-23T09:31:55;23.80;92.50
35258;DHT22;21385;50.878;8.050;2022-07-23T09:34:21;24.00;92.20
35258;DHT22;21385;50.878;8.050;2022-07-23T09:36:48;24.10;92.40
35258;DHT22;21385;50.878;8.050;2022-07-23T09:39:16;24.20;91.60
35258;DHT22;21385;50.878;8.050;2022-07-23T09:41:47;24.20;92.10
35258;DHT22;21385;50.878;8.050;2022-07-23T09:44:19;24.30;90.90
35258;DHT22;21385;50.878;8.050;2022-07-23T09:46:49;24.40;90.90
35258;DHT22;21385;50.878;8.050;2022-07-23T09:49:23;24.60;91.40
35258;DHT22;21385;50.878;8.050;2022-07-23T09:51:57;24.80;90.70
35258;DHT22;21385;50.878;8.050;2022-07-23T09:54:38;25.00;90.20
35258;DHT22;21385;50.878;8.050;2022-07-23T09:57:12;25.00;88.80
35258;DHT22;21385;50.878;8.050;2022-07-23T10:02:10;25.30;85.20
35258;DHT22;21385;50.878;8.050;2022-07-23T10:04:37;25.30;87.50
35258;DHT22;21385;50.878;8.050;2022-07-23T10:07:05;25.40;86.40
35258;DHT22;21385;50.878;8.050;2022-07-23T10:09:40;25.50;87.50
35258;DHT22;21385;50.878;8.050;2022-07-23T10:12:11;25.50;83.70
35258;DHT22;21385;50.878;8.050;2022-07-23T10:14:41;25.50;86.00
35258;DHT22;21385;50.878;8.050;2022-07-23T10:17:07;25.50;85.50
35258;DHT22;21385;50.878;8.050;2022-07-23T10:19:34;25.60;85.00
35258;DHT22;21385;50.878;8.050;2022-07-23T10:22:23;25.70;82.40
35258;DHT22;21385;50.878;8.050;2022-07-23T10:38:51;26.50;75.00
35258;DHT22;21385;50.878;8.050;2022-07-23T10:41:39;26.50;76.10
35258;DHT22;21385;50.878;8.050;2022-07-23T10:44:20;26.70;78.30
35258;DHT22;21385;50.878;8.050;2022-07-23T10:47:27;26.90;75.60
35258;DHT22;21385;50.878;8.050;2022-07-23T10:50:28;27.10;75.60
35258;DHT22;21385;50.878;8.050;2022-07-23T10:58:01;27.50;73.00
35258;DHT22;21385;50.878;8.050;2022-07-23T11:00:28;27.60;75.10
35258;DHT22;21385;50.878;8.050;2022-07-23T11:02:58;27.80;74.90
35258;DHT22;21385;50.878;8.050;2022-07-23T11:05:27;28.10;72.80
35258;DHT22;21385;50.878;8.050;2022-07-23T11:16:04;28.50;72.10
35258;DHT22;21385;50.878;8.050;2022-07-23T11:24:14;28.60;71.10
35258;DHT22;21385;50.878;8.050;2022-07-23T11:31:57;28.50;73.60
35258;DHT22;21385;50.878;8.050;2022-07-23T11:34:33;28.60;69.80
35258;DHT22;21385;50.878;8.050;2022-07-23T11:36:59;28.80;69.10
35258;DHT22;21385;50.878;8.050;2022-07-23T11:39:26;28.90;69.20
35258;DHT22;21385;50.878;8.050;2022-07-23T11:41:53;29.00;67.30
35258;DHT22;21385;50.878;8.050;2022-07-23T11:44:30;29.10;66.00
35258;DHT22;21385;50.878;8.050;2022-07-23T11:49:22;29.20;68.20
35258;DHT22;21385;50.878;8.050;2022-07-23T11:52:05;29.30;68.10
35258;DHT22;21385;50.878;8.050;2022-07-23T11:54:32;29.50;67.70
35258;DHT22;21385;50.878;8.050;2022-07-23T11:57:02;29.70;66.40
35258;DHT22;21385;50.878;8.050;2022-07-23T11:59:31;29.60;64.70
35258;DHT22;21385;50.878;8.050;2022-07-23T12:02:03;29.50;65.40
35258;DHT22;21385;50.878;8.050;2022-07-23T12:04:45;29.50;65.60
35258;DHT22;21385;50.878;8.050;2022-07-23T12:07:40;29.50;64.80
35258;DHT22;21385;50.878;8.050;2022-07-23T12:10:14;29.50;64.40
35258;DHT22;21385;50.878;8.050;2022-07-23T12:12:42;29.50;65.70
35258;DHT22;21385;50.878;8.050;2022-07-23T12:15:10;29.40;64.30
35258;DHT22;21385;50.878;8.050;2022-07-23T12:17:37;29.40;65.30
35258;DHT22;21385;50.878;8.050;2022-07-23T12:20:06;29.60;67.00
35258;DHT22;21385;50.878;8.050;2022-07-23T12:22:38;29.80;62.90
35258;DHT22;21385;50.878;8.050;2022-07-23T12:25:12;29.90;64.50
35258;DHT22;21385;50.878;8.050;2022-07-23T12:27:38;30.10;64.60
35258;DHT22;21385;50.878;8.050;2022-07-23T12:30:22;30.40;62.90
35258;DHT22;21385;50.878;8.050;2022-07-23T12:32:50;30.50;59.20
35258;DHT22;21385;50.878;8.050;2022-07-23T12:35:17;30.80;59.80
35258;DHT22;21385;50.878;8.050;2022-07-23T12:37:44;30.90;59.20
35258;DHT22;21385;50.878;8.050;2022-07-23T12:42:47;31.00;57.90
35258;DHT22;21385;50.878;8.050;2022-07-23T12:45:13;31.00;55.00
35258;DHT22;21385;50.878;8.050;2022-07-23T12:48:04;31.10;55.10
35258;DHT22;21385;50.878;8.050;2022-07-23T12:50:38;30.90;55.80
35258;DHT22;21385;50.878;8.050;2022-07-23T12:53:05;30.80;54.10
35258;DHT22;21385;50.878;8.050;2022-07-23T12:55:31;30.70;55.00
35258;DHT22;21385;50.878;8.050;2022-07-23T12:58:07;30.70;56.00
35258;DHT22;21385;50.878;8.050;2022-07-23T13:00:55;30.80;56.00
35258;DHT22;21385;50.878;8.050;2022-07-23T13:03:31;31.20;55.40
35258;DHT22;21385;50.878;8.050;2022-07-23T13:05:57;31.60;54.90
35258;DHT22;21385;50.878;8.050;2022-07-23T13:08:24;31.90;53.20
35258;DHT22;21385;50.878;8.050;2022-07-23T13:10:50;31.90;54.20
35258;DHT22;21385;50.878;8.050;2022-07-23T13:13:19;32.00;56.40
35258;DHT22;21385;50.878;8.050;2022-07-23T13:15:45;32.20;54.30
35258;DHT22;21385;50.878;8.050;2022-07-23T13:20:37;31.40;53.40
35258;DHT22;21385;50.878;8.050;2022-07-23T13:23:06;31.00;54.50
35258;DHT22;21385;50.878;8.050;2022-07-23T13:25:31;31.00;56.20
35258;DHT22;21385;50.878;8.050;2022-07-23T13:27:57;31.10;54.90
35258;DHT22;21385;50.878;8.050;2022-07-23T13:30:23;31.30;54.60
35258;DHT22;21385;50.878;8.050;2022-07-23T13:32:48;31.30;53.80
35258;DHT22;21385;50.878;8.050;2022-07-23T13:35:14;31.20;53.40
35258;DHT22;21385;50.878;8.050;2022-07-23T13:37:40;31.10;53.30
35258;DHT22;21385;50.878;8.050;2022-07-23T13:40:07;30.90;55.20
35258;DHT22;21385;50.878;8.050;2022-07-23T13:42:33;31.00;55.90
35258;DHT22;21385;50.878;8.050;2022-07-23T13:44:59;31.30;54.10
35258;DHT22;21385;50.878;8.050;2022-07-23T13:47:25;31.40;53.80
35258;DHT22;21385;50.878;8.050;2022-07-23T13:49:50;31.40;53.50
35258;DHT22;21385;50.878;8.050;2022-07-23T13:52:16;31.50;54.80
35258;DHT22;21385;50.878;8.050;2022-07-23T13:54:41;31.80;53.60
35258;DHT22;21385;50.878;8.050;2022-07-23T13:57:07;32.20;52.50
35258;DHT22;21385;50.878;8.050;2022-07-23T13:59:34;32.50;51.50
35258;DHT22;21385;50.878;8.050;2022-07-23T14:02:01;32.80;50.10
35258;DHT22;21385;50.878;8.050;2022-07-23T14:04:27;33.00;50.90
35258;DHT22;21385;50.878;8.050;2022-07-23T14:06:53;33.10;48.90
35258;DHT22;21385;50.878;8.050;2022-07-23T14:09:18;33.30;50.30
35258;DHT22;21385;50.878;8.050;2022-07-23T14:11:44;33.50;48.90
35258;DHT22;21385;50.878;8.050;2022-07-23T14:14:09;33.50;47.60
35258;DHT22;21385;50.878;8.050;2022-07-23T14:16:35;33.30;48.00
35258;DHT22;21385;50.878;8.050;2022-07-23T14:19:00;33.20;47.70
35258;DHT22;21385;50.878;8.050;2022-07-23T14:21:27;33.10;47.70
35258;DHT22;21385;50.878;8.050;2022-07-23T14:23:53;32.50;48.60
35258;DHT22;21385;50.878;8.050;2022-07-23T14:26:19;32.40;48.20
35258;DHT22;21385;50.878;8.050;2022-07-23T14:28:44;32.40;48.30
35258;DHT22;21385;50.878;8.050;2022-07-23T14:31:10;32.40;49.60
35258;DHT22;21385;50.878;8.050;2022-07-23T14:33:35;32.30;48.90
35258;DHT22;21385;50.878;8.050;2022-07-23T14:36:02;32.20;50.40
35258;DHT22;21385;50.878;8.050;2022-07-23T14:38:27;32.30;48.40
35258;DHT22;21385;50.878;8.050;2022-07-23T14:40:53;32.50;49.30
35258;DHT22;21385;50.878;8.050;2022-07-23T14:43:18;32.50;48.40
35258;DHT22;21385;50.878;8.050;2022-07-23T14:45:45;32.50;47.50
35258;DHT22;21385;50.878;8.050;2022-07-23T14:48:10;32.30;48.10
35258;DHT22;21385;50.878;8.050;2022-07-23T14:50:36;32.20;48.40
35258;DHT22;21385;50.878;8.050;2022-07-23T14:53:02;32.00;49.10
35258;DHT22;21385;50.878;8.050;2022-07-23T14:55:27;31.80;49.30
35258;DHT22;21385;50.878;8.050;2022-07-23T14:57:53;31.80;49.20
35258;DHT22;21385;50.878;8.050;2022-07-23T15:00:18;31.70;49.90
35258;DHT22;21385;50.878;8.050;2022-07-23T15:02:44;31.60;49.10
35258;DHT22;21385;50.878;8.050;2022-07-23T15:05:09;31.80;49.60
35258;DHT22;21385;50.878;8.050;2022-07-23T15:07:36;31.90;48.70
35258;DHT22;21385;50.878;8.050;2022-07-23T15:10:02;32.10;49.20
35258;DHT22;21385;50.878;8.050;2022-07-23T15:12:27;32.10;48.90
35258;DHT22;21385;50.878;8.050;2022-07-23T15:14:53;32.30;48.70
35258;DHT22;21385;50.878;8.050;2022-07-23T15:17:19;32.50;47.40
35258;DHT22;21385;50.878;8.050;2022-07-23T15:19:44;32.60;49.30
35258;DHT22;21385;50.878;8.050;2022-07-23T15:22:10;32.90;48.20
35258;DHT22;21385;50.878;8.050;2022-07-23T15:24:35;33.10;47.00
35258;DHT22;21385;50.878;8.050;2022-07-23T15:29:27;33.10;45.50
35258;DHT22;21385;50.878;8.050;2022-07-23T15:31:53;32.90;47.50
35258;DHT22;21385;50.878;8.050;2022-07-23T15:34:18;33.00;46.80
35258;DHT22;21385;50.878;8.050;2022-07-23T15:36:44;33.10;46.80
35258;DHT22;21385;50.878;8.050;2022-07-23T15:39:09;33.20;46.60
35258;DHT22;21385;50.878;8.050;2022-07-23T15:41:35;33.40;47.20
35258;DHT22;21385;50.878;8.050;2022-07-23T15:44:01;33.50;46.00
35258;DHT22;21385;50.878;8.050;2022-07-23T15:46:27;33.30;46.30
35258;DHT22;21385;50.878;8.050;2022-07-23T15:48:53;33.40;47.00
35258;DHT22;21385;50.878;8.050;2022-07-23T15:51:18;33.50;46.40
35258;DHT22;21385;50.878;8.050;2022-07-23T15:53:44;33.60;46.30
35258;DHT22;21385;50.878;8.050;2022-07-23T15:56:10;33.70;45.50
35258;DHT22;21385;50.878;8.050;2022-07-23T15:58:37;33.50;44.80
35258;DHT22;21385;50.878;8.050;2022-07-23T16:01:03;33.20;46.00
35258;DHT22;21385;50.878;8.050;2022-07-23T16:03:32;33.20;46.80
35258;DHT22;21385;50.878;8.050;2022-07-23T16:05:58;33.30;45.50
35258;DHT22;21385;50.878;8.050;2022-07-23T16:08:23;33.40;46.20
35258;DHT22;21385;50.878;8.050;2022-07-23T16:10:49;33.40;45.90
35258;DHT22;21385;50.878;8.050;2022-07-23T16:13:14;33.50;46.10
35258;DHT22;21385;50.878;8.050;2022-07-23T16:15:41;33.30;45.20
35258;DHT22;21385;50.878;8.050;2022-07-23T16:18:08;33.30;45.30
35258;DHT22;21385;50.878;8.050;2022-07-23T16:20:35;33.30;46.10
35258;DHT22;21385;50.878;8.050;2022-07-23T16:23:01;33.40;44.60
35258;DHT22;21385;50.878;8.050;2022-07-23T16:25:27;33.40;44.90